Time;durP1;ratioP1;P1;durP2;ratioP2;P2;SDS_P1;SDS_P2;PMS_P1;PMS_P2;Temp;Humidity;BMP_temperature;BMP_pressure;BME280_temperature;BME280_humidity;BME280_pressure;Samples;Min_cycle;Max_cycle;Signal;HPM_P1;HPM_P2
2023/03/04 00:02:40;;;;;;;76.20;33.10;;;;;;;-0.38;84.29;98598.09;436281;1254;109303;-39
2023/03/04 00:12:48;;;;;;;75.70;31.10;;;;;;;-0.50;84.54;98580.98;436413;1253;97992;-40
2023/03/04 00:22:54;;;;;;;65.40;29.20;;;;;;;-0.56;84.35;98557.92;436270;1254;110648;-40
2023/03/04 00:43:07;;;;;;;62.90;27.50;;;;;;;-0.47;84.34;98553.20;435415;1251;97747;-40
2023/03/04 00:53:14;;;;;;;59.90;24.60;;;;;;;-0.48;84.54;98545.27;435869;1254;106950;-39
2023/03/04 01:03:21;;;;;;;83.40;30.00;;;;;;;-0.50;84.66;98537.38;436554;1263;97864;-39
2023/03/04 01:13:29;;;;;;;74.10;27.10;;;;;;;-0.64;85.21;98529.32;435443;1254;97879;-39
2023/03/04 01:23:36;;;;;;;75.90;29.60;;;;;;;-0.75;85.24;98515.21;436166;1251;111813;-39
2023/03/04 01:33:43;;;;;;;63.10;25.50;;;;;;;-0.76;85.40;98500.58;436395;1253;108517;-40
2023/03/04 01:43:51;;;;;;;70.60;26.30;;;;;;;-0.78;85.87;98484.75;436281;1251;97866;-40
2023/03/04 01:53:58;;;;;;;68.60;26.10;;;;;;;-0.76;85.92;98472.56;436317;1254;108062;-40
2023/03/04 02:14:15;;;;;;;98.90;37.30;;;;;;;-0.77;85.93;98445.14;436467;1251;108917;-40
2023/03/04 02:24:28;;;;;;;86.90;32.10;;;;;;;-0.90;86.15;98447.11;437079;1246;107156;-39
2023/03/04 02:34:37;;;;;;;60.70;26.50;;;;;;;-0.95;86.31;98437.73;435366;1250;96619;-39
2023/03/04 02:44:48;;;;;;;52.90;24.20;;;;;;;-0.93;86.46;98431.83;435472;1253;109984;-40
2023/03/04 02:54:55;;;;;;;49.50;23.10;;;;;;;-0.89;86.43;98423.80;435572;1252;107864;-40
2023/03/04 03:05:02;;;;;;;81.70;31.70;;;;;;;-0.87;86.40;98419.46;435492;1250;97341;-39
2023/03/04 03:15:11;;;;;;;74.20;30.30;;;;;;;-0.95;86.37;98409.52;435463;1253;109792;-42
2023/03/04 03:25:17;;;;;;;70.80;28.10;;;;;;;-0.95;86.20;98399.89;435482;1251;108790;-41
2023/03/04 03:35:24;;;;;;;62.40;28.00;;;;;;;-0.89;86.21;98390.08;435045;1253;529296;-41
2023/03/04 03:45:31;;;;;;;53.40;26.80;;;;;;;-0.81;86.24;98386.77;435506;1254;109009;-40
2023/03/04 03:55:39;;;;;;;79.20;31.20;;;;;;;-0.80;86.19;98385.57;435520;1250;108397;-40
2023/03/04 04:05:46;;;;;;;69.30;27.40;;;;;;;-0.83;86.41;98371.92;435508;1251;97872;-40
2023/03/04 04:15:53;;;;;;;66.90;27.10;;;;;;;-0.84;86.09;98370.49;435676;1252;110716;-40
2023/03/04 04:26:00;;;;;;;51.60;23.40;;;;;;;-0.80;86.09;98357.80;435492;1250;106668;-40
2023/03/04 04:36:10;;;;;;;48.80;22.50;;;;;;;-0.69;86.06;98345.81;435612;1250;97871;-39
2023/03/04 04:46:17;;;;;;;47.80;21.20;;;;;;;-0.62;85.93;98328.24;435611;1251;110279;-40
2023/03/04 04:56:26;;;;;;;71.10;26.90;;;;;;;-0.64;86.29;98304.78;435699;1251;105723;-39
2023/03/04 05:06:33;;;;;;;47.20;22.60;;;;;;;-0.64;86.01;98289.08;435586;1253;97461;-39
2023/03/04 05:16:41;;;;;;;41.10;18.20;;;;;;;-0.61;85.97;98274.88;435424;1249;109059;-39
2023/03/04 05:26:48;;;;;;;36.00;16.90;;;;;;;-0.54;85.76;98258.84;435388;1250;109851;-40
2023/03/04 05:36:55;;;;;;;42.30;20.90;;;;;;;-0.44;85.68;98262.18;435488;1252;98064;-41
2023/03/04 05:47:03;;;;;;;44.20;20.20;;;;;;;-0.43;85.69;98290.70;435576;1252;107411;-41
2023/03/04 06:07:16;;;;;;;33.10;18.00;;;;;;;-0.39;85.46;98301.48;435714;1252;109706;-40
2023/03/04 06:17:23;;;;;;;42.40;21.50;;;;;;;-0.33;85.51;98307.11;435726;1253;106967;-39
2023/03/04 06:27:30;;;;;;;38.20;18.70;;;;;;;-0.36;85.33;98312.64;435615;1249;97844;-41
2023/03/04 06:37:38;;;;;;;35.20;17.10;;;;;;;-0.29;85.16;98321.70;435554;1251;111264;-40
2023/03/04 06:47:45;;;;;;;28.90;15.30;;;;;;;-0.19;85.13;98329.35;435556;1253;107247;-40
2023/03/04 06:57:52;;;;;;;35.10;17.30;;;;;;;-0.20;84.80;98331.43;435512;1252;97752;-39
2023/03/04 07:08:00;;;;;;;35.40;17.90;;;;;;;-0.21;84.52;98331.13;435632;1253;110685;-39
2023/03/04 07:18:07;;;;;;;36.90;18.40;;;;;;;-0.14;84.25;98328.86;435543;1250;108250;-40
2023/03/04 07:28:14;;;;;;;41.20;21.10;;;;;;;-0.06;84.10;98324.30;435443;1253;97871;-44
2023/03/04 07:38:21;;;;;;;49.50;24.40;;;;;;;-0.03;83.90;98319.64;435664;1252;109905;-40
2023/03/04 07:48:29;;;;;;;48.40;23.70;;;;;;;0.01;83.86;98313.66;435584;1253;108087;-39
2023/03/04 07:58:36;;;;;;;43.20;20.40;;;;;;;0.13;83.67;98311.55;435693;1250;97837;-41
2023/03/04 08:08:44;;;;;;;49.20;23.20;;;;;;;0.22;83.59;98312.95;435599;1253;110039;-40
2023/03/04 08:29:04;;;;;;;75.40;30.00;;;;;;;0.29;83.32;98312.80;435595;1251;97947;-40
2023/03/04 08:39:14;;;;;;;45.70;20.40;;;;;;;0.32;83.21;98309.04;435509;1252;110120;-40
2023/03/04 08:49:21;;;;;;;31.30;18.20;;;;;;;0.44;83.07;98298.64;435448;1250;107940;-41
2023/03/04 08:59:28;;;;;;;50.30;22.90;;;;;;;0.53;82.97;98296.98;435504;1250;97871;-40
2023/03/04 09:09:35;;;;;;;49.70;24.70;;;;;;;0.56;82.93;98299.19;435496;1253;109498;-40
2023/03/04 09:19:43;;;;;;;36.10;19.50;;;;;;;0.64;82.87;98294.95;435460;1253;107526;-40
2023/03/04 09:39:57;;;;;;;42.20;21.30;;;;;;;1.05;82.83;98280.84;436323;1252;110125;-40
2023/03/04 09:50:04;;;;;;;33.10;17.30;;;;;;;1.26;82.84;98265.27;435564;1252;107884;-40
2023/03/04 10:10:22;;;;;;;20.20;11.90;;;;;;;1.49;82.55;98254.17;435391;1251;96651;-41
2023/03/04 10:20:39;;;;;;;24.40;13.70;;;;;;;1.55;82.57;98250.23;435507;1250;108482;-41
2023/03/04 10:30:45;;;;;;;46.70;18.80;;;;;;;1.63;82.77;98246.15;435431;1252;96921;-40
2023/03/04 10:40:52;;;;;;;31.60;14.70;;;;;;;1.58;82.84;98238.48;435702;1253;97896;-41
2023/03/04 11:01:23;;;;;;;31.00;15.40;;;;;;;1.45;82.90;98218.19;435562;1250;109419;-40
2023/03/04 11:21:39;;;;;;;40.40;22.70;;;;;;;1.38;83.26;98206.65;435544;1253;110863;-40
2023/03/04 11:31:44;;;;;;;38.30;21.00;;;;;;;1.35;83.61;98200.77;435474;1253;107877;-40
2023/03/04 11:41:55;;;;;;;41.10;20.80;;;;;;;1.41;83.85;98192.48;435437;1251;97852;-40
2023/03/04 11:51:59;;;;;;;31.00;17.70;;;;;;;1.52;84.18;98179.69;435337;1252;111052;-40
2023/03/04 12:02:15;;;;;;;34.80;16.90;;;;;;;1.66;84.38;98167.94;435486;1252;107322;-40
2023/03/04 12:12:24;;;;;;;71.70;32.10;;;;;;;1.79;84.75;98159.77;435345;1253;96676;-40
2023/03/04 12:22:34;;;;;;;38.10;19.30;;;;;;;1.85;84.91;98151.72;435478;1252;108929;-40
2023/03/04 12:32:39;;;;;;;65.90;30.90;;;;;;;2.05;84.86;98145.59;435430;1253;107228;-39
2023/03/04 12:42:49;;;;;;;30.10;16.60;;;;;;;2.11;85.04;98140.36;435381;1252;97857;-40
2023/03/04 12:52:54;;;;;;;30.20;14.60;;;;;;;2.18;85.08;98123.52;435476;1253;109561;-41
2023/03/04 13:03:02;;;;;;;42.00;19.40;;;;;;;2.17;85.36;98115.16;435471;1249;108427;-39
2023/03/04 13:13:24;;;;;;;45.20;20.60;;;;;;;2.11;85.25;98119.19;435518;1250;100123;-40
2023/03/04 13:23:32;;;;;;;25.60;14.70;;;;;;;2.17;85.31;98112.02;435423;1253;109478;-39
2023/03/04 13:33:45;;;;;;;27.40;13.00;;;;;;;2.36;85.38;98102.70;435465;1251;106822;-41
2023/03/04 13:43:53;;;;;;;14.10;9.60;;;;;;;2.48;85.51;98097.72;435428;1253;97864;-40
2023/03/04 14:04:19;;;;;;;32.40;17.00;;;;;;;2.62;85.56;98085.73;435438;1252;97935;-39
2023/03/04 14:14:28;;;;;;;22.10;11.10;;;;;;;2.76;85.48;98084.38;439290;1250;97857;-40
2023/03/04 14:24:35;;;;;;;28.50;16.10;;;;;;;2.94;85.33;98084.61;435647;1251;106487;-39
2023/03/04 14:34:43;;;;;;;73.90;28.80;;;;;;;3.09;85.26;98074.87;435505;1252;96629;-39
2023/03/04 14:44:52;;;;;;;56.90;22.10;;;;;;;3.08;85.09;98069.58;435455;1253;110544;-39
2023/03/04 14:55:00;;;;;;;23.00;11.60;;;;;;;3.03;84.75;98074.10;435534;1252;107026;-39
2023/03/04 15:05:08;;;;;;;18.70;8.10;;;;;;;3.15;84.50;98067.05;435512;1250;96620;-39
2023/03/04 15:15:42;;;;;;;28.40;15.30;;;;;;;3.21;84.14;98057.86;435537;1253;110493;-40
2023/03/04 15:25:51;;;;;;;20.30;11.70;;;;;;;3.10;83.86;98054.52;435487;1252;107268;-39
2023/03/04 15:35:59;;;;;;;13.30;8.70;;;;;;;2.98;83.62;98046.09;435103;1249;393928;-40
2023/03/04 15:46:04;;;;;;;11.90;7.00;;;;;;;2.97;83.47;98043.30;435531;1255;97463;-40
2023/03/04 15:56:15;;;;;;;16.20;9.50;;;;;;;2.97;83.45;98047.33;435491;1253;107139;-39
2023/03/04 16:06:24;;;;;;;19.10;9.20;;;;;;;2.89;83.41;98050.88;435592;1254;97232;-40
2023/03/04 16:16:32;;;;;;;19.60;7.30;;;;;;;2.85;83.27;98044.52;435654;1252;97854;-40
2023/03/04 16:26:39;;;;;;;11.90;6.70;;;;;;;2.86;83.19;98045.57;435549;1253;110605;-40
2023/03/04 16:36:46;;;;;;;22.80;11.70;;;;;;;2.87;83.28;98049.23;435414;1253;108044;-39
2023/03/04 16:46:53;;;;;;;20.90;11.20;;;;;;;2.79;83.26;98050.38;435545;1253;97887;-41
2023/03/04 16:57:01;;;;;;;19.00;8.20;;;;;;;2.74;83.30;98064.78;435449;1263;109562;-40
2023/03/04 17:07:08;;;;;;;15.70;8.20;;;;;;;2.79;83.40;98073.23;435412;1253;106593;-39
2023/03/04 17:17:16;;;;;;;36.90;23.40;;;;;;;2.82;83.43;98069.63;435524;1253;98018;-40
2023/03/04 17:27:24;;;;;;;16.20;10.80;;;;;;;2.75;83.73;98061.16;435517;1253;108119;-41
2023/03/04 17:37:31;;;;;;;14.20;9.20;;;;;;;2.65;83.84;98079.52;435512;1253;97903;-41
2023/03/04 17:47:39;;;;;;;16.10;9.60;;;;;;;2.65;83.84;98095.42;435499;1254;97890;-40
2023/03/04 17:57:47;;;;;;;16.20;8.10;;;;;;;2.62;84.04;98101.84;435362;1263;107674;-40
2023/03/04 18:07:52;;;;;;;13.80;7.70;;;;;;;2.31;84.07;98129.17;435523;1254;97187;-39
2023/03/04 18:17:59;;;;;;;12.80;8.90;;;;;;;1.80;84.06;98140.17;435637;1251;109918;-40
2023/03/04 18:28:06;;;;;;;26.20;13.20;;;;;;;1.53;84.23;98144.93;435379;1253;108482;-40
2023/03/04 18:38:13;;;;;;;24.50;13.10;;;;;;;1.30;84.47;98146.55;435433;1252;97851;-38
2023/03/04 18:48:20;;;;;;;20.50;12.10;;;;;;;1.23;84.89;98155.51;435423;1254;108871;-39
2023/03/04 18:58:27;;;;;;;44.60;21.50;;;;;;;1.21;85.11;98159.64;435543;1253;97864;-39
2023/03/04 19:08:34;;;;;;;52.20;23.30;;;;;;;1.12;85.35;98176.39;435425;1252;97889;-40
2023/03/04 19:18:42;;;;;;;43.80;22.70;;;;;;;1.03;85.45;98180.44;436912;1253;111174;-40
2023/03/04 19:28:49;;;;;;;53.90;26.80;;;;;;;1.05;85.79;98178.73;435527;1251;107849;-39
2023/03/04 19:38:57;;;;;;;37.70;16.70;;;;;;;1.10;86.09;98182.64;435391;1261;97893;-40
2023/03/04 19:49:05;;;;;;;19.20;9.30;;;;;;;1.12;86.18;98184.23;435485;1254;109317;-39
2023/03/04 19:59:12;;;;;;;22.70;10.40;;;;;;;1.13;86.24;98194.93;435491;1253;107496;-40
2023/03/04 20:09:21;;;;;;;20.00;9.60;;;;;;;1.11;86.25;98201.36;435504;1253;97906;-43
2023/03/04 20:19:30;;;;;;;29.10;15.00;;;;;;;1.06;86.78;98203.87;435532;1254;108060;-39
2023/03/04 20:29:37;;;;;;;29.10;12.00;;;;;;;0.98;86.90;98201.04;435537;1254;97837;-39
2023/03/04 20:39:45;;;;;;;16.20;5.90;;;;;;;0.98;86.82;98206.52;435559;1254;111543;-40
2023/03/04 20:59:59;;;;;;;15.60;6.70;;;;;;;0.97;86.64;98221.67;435572;1251;97957;-39
2023/03/04 21:10:05;;;;;;;26.10;9.80;;;;;;;0.85;86.67;98227.66;435614;1254;107520;-39
2023/03/04 21:20:15;;;;;;;21.90;9.90;;;;;;;0.70;86.20;98232.92;435637;1253;97884;-40
2023/03/04 21:30:23;;;;;;;22.40;10.30;;;;;;;0.64;85.95;98232.51;435584;1251;110069;-39
2023/03/04 21:40:30;;;;;;;14.90;5.20;;;;;;;0.49;85.43;98224.55;435420;1253;107532;-39
2023/03/04 21:50:38;;;;;;;23.40;6.80;;;;;;;0.21;84.71;98229.83;435624;1252;97996;-39
2023/03/04 22:00:48;;;;;;;13.70;6.90;;;;;;;0.01;84.06;98234.70;435638;1253;109251;-40
2023/03/04 22:10:55;;;;;;;17.60;7.70;;;;;;;-0.08;83.69;98235.18;435484;1251;107896;-40
2023/03/04 22:21:00;;;;;;;17.10;6.60;;;;;;;-0.09;83.50;98226.48;435617;1251;97481;-39
2023/03/04 22:31:13;;;;;;;23.90;8.50;;;;;;;-0.21;83.09;98237.98;435538;1254;110354;-40
2023/03/04 22:41:21;;;;;;;39.60;14.00;;;;;;;-0.33;82.44;98237.46;435590;1251;107467;-40
2023/03/04 22:51:29;;;;;;;45.10;15.20;;;;;;;-0.41;82.39;98247.09;435544;1253;97500;-43
2023/03/04 23:01:37;;;;;;;52.90;19.50;;;;;;;-0.48;82.20;98242.46;435514;1253;98283;-40
2023/03/04 23:11:42;;;;;;;39.70;15.60;;;;;;;-0.56;81.98;98246.26;435439;1251;109123;-39
2023/03/04 23:21:49;;;;;;;31.30;11.00;;;;;;;-0.67;81.75;98251.80;435550;1250;109652;-39
2023/03/04 23:31:57;;;;;;;22.90;8.80;;;;;;;-0.67;81.53;98255.20;435456;1250;96619;-39
2023/03/04 23:42:04;;;;;;;16.20;6.00;;;;;;;-0.61;81.16;98251.27;435526;1254;109595;-40
2023/03/04 23:52:11;;;;;;;22.30;9.10;;;;;;;-0.54;81.15;98257.29;435537;1253;108178;-40
